sensor_id;sensor_type;location;lat;lon;timestamp;pressure;altitude;pressure_sealevel;temperature;humidity
35918;BME280;22011;59.912;30.300;2023-02-22T00:01:31;101378.56;;;-6.64;62.88
35918;BME280;22011;59.912;30.300;2023-02-22T00:04:01;101379.03;;;-6.50;63.33
35918;BME280;22011;59.912;30.300;2023-02-22T00:06:31;101389.16;;;-6.73;63.13
35918;BME280;22011;59.912;30.300;2023-02-22T00:08:58;101382.41;;;-6.79;63.16
35918;BME280;22011;59.912;30.300;2023-02-22T00:11:27;101385.13;;;-6.83;62.99
35918;BME280;22011;59.912;30.300;2023-02-22T00:13:56;101383.41;;;-6.84;62.97
35918;BME280;22011;59.912;30.300;2023-02-22T00:16:25;101396.28;;;-6.81;63.44
35918;BME280;22011;59.912;30.300;2023-02-22T00:18:56;101391.16;;;-6.83;63.42
35918;BME280;22011;59.912;30.300;2023-02-22T00:21:23;101401.44;;;-6.80;63.24
35918;BME280;22011;59.912;30.300;2023-02-22T00:23:52;101393.53;;;-6.75;63.49
35918;BME280;22011;59.912;30.300;2023-02-22T00:26:20;101403.91;;;-6.75;63.80
35918;BME280;22011;59.912;30.300;2023-02-22T00:28:49;101411.66;;;-6.75;64.03
35918;BME280;22011;59.912;30.300;2023-02-22T00:31:19;101410.81;;;-6.76;63.77
35918;BME280;22011;59.912;30.300;2023-02-22T00:33:48;101408.50;;;-6.86;63.50
35918;BME280;22011;59.912;30.300;2023-02-22T00:36:16;101416.19;;;-6.83;64.05
35918;BME280;22011;59.912;30.300;2023-02-22T00:38:44;101412.84;;;-6.87;63.74
35918;BME280;22011;59.912;30.300;2023-02-22T00:41:13;101422.38;;;-6.89;63.93
35918;BME280;22011;59.912;30.300;2023-02-22T00:43:40;101422.38;;;-6.89;63.94
35918;BME280;22011;59.912;30.300;2023-02-22T00:46:08;101420.75;;;-6.93;64.21
35918;BME280;22011;59.912;30.300;2023-02-22T00:48:35;101424.22;;;-6.93;63.66
35918;BME280;22011;59.912;30.300;2023-02-22T00:51:03;101434.53;;;-6.91;63.52
35918;BME280;22011;59.912;30.300;2023-02-22T00:53:30;101430.94;;;-6.85;63.61
35918;BME280;22011;59.912;30.300;2023-02-22T00:55:58;101438.72;;;-6.85;62.95
35918;BME280;22011;59.912;30.300;2023-02-22T00:58:28;101443.97;;;-6.88;63.42
35918;BME280;22011;59.912;30.300;2023-02-22T01:00:57;101444.13;;;-6.95;63.22
35918;BME280;22011;59.912;30.300;2023-02-22T01:03:25;101449.34;;;-6.96;63.03
35918;BME280;22011;59.912;30.300;2023-02-22T01:05:56;101440.91;;;-7.04;63.23
35918;BME280;22011;59.912;30.300;2023-02-22T01:08:23;101446.16;;;-7.07;63.21
35918;BME280;22011;59.912;30.300;2023-02-22T01:10:51;101445.41;;;-7.12;63.77
35918;BME280;22011;59.912;30.300;2023-02-22T01:13:18;101451.44;;;-7.12;63.62
35918;BME280;22011;59.912;30.300;2023-02-22T01:15:48;101455.69;;;-7.09;63.69
35918;BME280;22011;59.912;30.300;2023-02-22T01:18:15;101461.75;;;-7.10;63.56
35918;BME280;22011;59.912;30.300;2023-02-22T01:20:43;101457.44;;;-7.10;63.63
35918;BME280;22011;59.912;30.300;2023-02-22T01:23:15;101462.78;;;-7.17;63.37
35918;BME280;22011;59.912;30.300;2023-02-22T01:25:42;101465.53;;;-7.23;63.65
35918;BME280;22011;59.912;30.300;2023-02-22T01:28:13;101466.34;;;-7.21;64.08
35918;BME280;22011;59.912;30.300;2023-02-22T01:30:41;101470.59;;;-7.19;64.51
35918;BME280;22011;59.912;30.300;2023-02-22T01:33:10;101478.28;;;-7.16;63.55
35918;BME280;22011;59.912;30.300;2023-02-22T01:35:41;101473.19;;;-7.19;63.54
35918;BME280;22011;59.912;30.300;2023-02-22T01:38:11;101484.44;;;-7.20;64.03
35918;BME280;22011;59.912;30.300;2023-02-22T01:40:40;101480.97;;;-7.19;63.65
35918;BME280;22011;59.912;30.300;2023-02-22T01:43:18;101480.81;;;-7.13;63.68
35918;BME280;22011;59.912;30.300;2023-02-22T01:45:54;101486.78;;;-7.09;63.69
35918;BME280;22011;59.912;30.300;2023-02-22T01:48:28;101487.69;;;-7.12;63.56
35918;BME280;22011;59.912;30.300;2023-02-22T01:50:59;101493.16;;;-7.24;63.84
35918;BME280;22011;59.912;30.300;2023-02-22T01:53:31;101497.41;;;-7.21;63.93
35918;BME280;22011;59.912;30.300;2023-02-22T01:56:01;101492.31;;;-7.25;64.10
35918;BME280;22011;59.912;30.300;2023-02-22T01:58:31;101500.84;;;-7.21;64.27
35918;BME280;22011;59.912;30.300;2023-02-22T02:00:59;101491.81;;;-7.03;64.54
35918;BME280;22011;59.912;30.300;2023-02-22T02:03:31;101499.97;;;-7.20;63.60
35918;BME280;22011;59.912;30.300;2023-02-22T02:06:03;101500.00;;;-7.21;63.65
35918;BME280;22011;59.912;30.300;2023-02-22T02:08:35;101505.25;;;-7.25;63.52
35918;BME280;22011;59.912;30.300;2023-02-22T02:11:04;101504.56;;;-7.31;63.66
35918;BME280;22011;59.912;30.300;2023-02-22T02:13:35;101508.94;;;-7.33;63.35
35918;BME280;22011;59.912;30.300;2023-02-22T02:16:03;101503.75;;;-7.33;64.07
35918;BME280;22011;59.912;30.300;2023-02-22T02:18:32;101509.00;;;-7.36;63.93
35918;BME280;22011;59.912;30.300;2023-02-22T02:21:38;101518.25;;;-7.28;64.68
35918;BME280;22011;59.912;30.300;2023-02-22T02:27:13;101522.88;;;-7.40;64.60
35918;BME280;22011;59.912;30.300;2023-02-22T02:32:51;101529.47;;;-7.27;64.42
35918;BME280;22011;59.912;30.300;2023-02-22T02:35:27;101530.47;;;-7.31;64.19
35918;BME280;22011;59.912;30.300;2023-02-22T02:38:03;101537.34;;;-7.30;64.27
35918;BME280;22011;59.912;30.300;2023-02-22T02:40:35;101543.25;;;-7.25;64.19
35918;BME280;22011;59.912;30.300;2023-02-22T02:43:11;101542.34;;;-7.24;64.28
35918;BME280;22011;59.912;30.300;2023-02-22T02:45:44;101542.53;;;-7.30;64.20
35918;BME280;22011;59.912;30.300;2023-02-22T02:48:18;101545.81;;;-7.25;64.08
35918;BME280;22011;59.912;30.300;2023-02-22T02:50:48;101546.72;;;-7.26;64.44
35918;BME280;22011;59.912;30.300;2023-02-22T02:53:18;101554.56;;;-7.29;64.01
35918;BME280;22011;59.912;30.300;2023-02-22T02:55:49;101558.91;;;-7.30;64.23
35918;BME280;22011;59.912;30.300;2023-02-22T02:58:20;101554.38;;;-7.21;64.27
35918;BME280;22011;59.912;30.300;2023-02-22T03:00:49;101557.84;;;-7.22;63.78
35918;BME280;22011;59.912;30.300;2023-02-22T03:03:58;101560.22;;;-7.12;64.39
35918;BME280;22011;59.912;30.300;2023-02-22T03:06:46;101561.88;;;-7.09;64.15
35918;BME280;22011;59.912;30.300;2023-02-22T03:09:26;101573.16;;;-7.12;63.99
35918;BME280;22011;59.912;30.300;2023-02-22T03:12:09;101563.69;;;-7.13;63.96
35918;BME280;22011;59.912;30.300;2023-02-22T03:14:44;101579.41;;;-7.22;63.25
35918;BME280;22011;59.912;30.300;2023-02-22T03:17:20;101578.75;;;-7.30;62.28
35918;BME280;22011;59.912;30.300;2023-02-22T03:19:57;101582.44;;;-7.40;62.07
35918;BME280;22011;59.912;30.300;2023-02-22T03:22:30;101590.63;;;-7.62;61.50
35918;BME280;22011;59.912;30.300;2023-02-22T03:25:02;101591.78;;;-7.78;61.39
35918;BME280;22011;59.912;30.300;2023-02-22T03:27:38;101597.25;;;-7.93;60.90
35918;BME280;22011;59.912;30.300;2023-02-22T03:30:13;101601.91;;;-8.12;60.26
35918;BME280;22011;59.912;30.300;2023-02-22T03:32:45;101598.66;;;-8.25;60.53
35918;BME280;22011;59.912;30.300;2023-02-22T03:35:18;101607.53;;;-8.35;61.01
35918;BME280;22011;59.912;30.300;2023-02-22T03:37:52;101612.84;;;-8.44;60.79
35918;BME280;22011;59.912;30.300;2023-02-22T03:40:23;101618.97;;;-8.51;61.17
35918;BME280;22011;59.912;30.300;2023-02-22T03:42:58;101619.06;;;-8.57;61.41
35918;BME280;22011;59.912;30.300;2023-02-22T03:45:28;101617.53;;;-8.70;61.11
35918;BME280;22011;59.912;30.300;2023-02-22T03:48:03;101615.91;;;-8.76;61.56
35918;BME280;22011;59.912;30.300;2023-02-22T03:53:06;101627.34;;;-8.94;61.95
35918;BME280;22011;59.912;30.300;2023-02-22T03:55:36;101619.44;;;-8.81;62.57
35918;BME280;22011;59.912;30.300;2023-02-22T03:58:06;101625.69;;;-8.98;62.29
35918;BME280;22011;59.912;30.300;2023-02-22T04:00:37;101630.81;;;-8.96;62.58
35918;BME280;22011;59.912;30.300;2023-02-22T04:03:09;101629.94;;;-8.95;62.45
35918;BME280;22011;59.912;30.300;2023-02-22T04:05:39;101632.59;;;-9.00;62.25
35918;BME280;22011;59.912;30.300;2023-02-22T04:08:07;101629.22;;;-9.05;62.34
35918;BME280;22011;59.912;30.300;2023-02-22T04:10:34;101640.41;;;-9.04;62.48
35918;BME280;22011;59.912;30.300;2023-02-22T04:13:03;101639.53;;;-9.03;62.43
35918;BME280;22011;59.912;30.300;2023-02-22T04:15:33;101642.91;;;-9.00;62.61
35918;BME280;22011;59.912;30.300;2023-02-22T04:18:04;101649.75;;;-8.96;62.92
35918;BME280;22011;59.912;30.300;2023-02-22T04:20:32;101645.47;;;-8.98;62.45
35918;BME280;22011;59.912;30.300;2023-02-22T04:23:15;101639.38;;;-8.93;62.84
35918;BME280;22011;59.912;30.300;2023-02-22T04:25:43;101642.00;;;-8.94;62.88
35918;BME280;22011;59.912;30.300;2023-02-22T04:28:11;101641.09;;;-8.92;63.08
35918;BME280;22011;59.912;30.300;2023-02-22T04:30:51;101644.41;;;-8.83;63.04
35918;BME280;22011;59.912;30.300;2023-02-22T04:33:19;101641.78;;;-8.79;63.26
35918;BME280;22011;59.912;30.300;2023-02-22T04:35:46;101638.28;;;-8.75;63.24
35918;BME280;22011;59.912;30.300;2023-02-22T04:38:15;101640.78;;;-8.70;63.15
35918;BME280;22011;59.912;30.300;2023-02-22T04:40:43;101648.53;;;-8.70;63.07
35918;BME280;22011;59.912;30.300;2023-02-22T04:43:11;101646.09;;;-8.79;62.65
35918;BME280;22011;59.912;30.300;2023-02-22T04:45:39;101656.50;;;-8.85;62.90
35918;BME280;22011;59.912;30.300;2023-02-22T04:48:08;101658.28;;;-8.91;63.12
35918;BME280;22011;59.912;30.300;2023-02-22T04:50:35;101656.66;;;-8.98;62.79
35918;BME280;22011;59.912;30.300;2023-02-22T04:53:03;101663.53;;;-8.97;63.10
35918;BME280;22011;59.912;30.300;2023-02-22T04:55:32;101667.84;;;-8.97;63.08
35918;BME280;22011;59.912;30.300;2023-02-22T04:58:01;101665.22;;;-8.94;63.10
35918;BME280;22011;59.912;30.300;2023-02-22T05:00:28;101668.59;;;-8.87;62.73
35918;BME280;22011;59.912;30.300;2023-02-22T05:03:00;101671.91;;;-8.78;62.94
35918;BME280;22011;59.912;30.300;2023-02-22T05:05:27;101676.16;;;-8.75;62.80
35918;BME280;22011;59.912;30.300;2023-02-22T05:07:55;101677.03;;;-8.75;62.60
35918;BME280;22011;59.912;30.300;2023-02-22T05:10:22;101677.03;;;-8.76;62.22
35918;BME280;22011;59.912;30.300;2023-02-22T05:12:51;101685.66;;;-8.77;62.35
35918;BME280;22011;59.912;30.300;2023-02-22T05:15:20;101684.78;;;-8.76;62.11
35918;BME280;22011;59.912;30.300;2023-02-22T05:17:50;101693.38;;;-8.74;61.92
35918;BME280;22011;59.912;30.300;2023-02-22T05:20:23;101701.91;;;-8.68;61.89
35918;BME280;22011;59.912;30.300;2023-02-22T05:22:53;101702.88;;;-8.76;61.21
35918;BME280;22011;59.912;30.300;2023-02-22T05:25:20;101707.16;;;-8.75;61.52
35918;BME280;22011;59.912;30.300;2023-02-22T05:27:49;101706.31;;;-8.76;61.41
35918;BME280;22011;59.912;30.300;2023-02-22T05:30:20;101707.97;;;-8.70;61.62
35918;BME280;22011;59.912;30.300;2023-02-22T05:32:48;101708.91;;;-8.77;61.30
35918;BME280;22011;59.912;30.300;2023-02-22T05:35:16;101710.63;;;-8.76;61.30
35918;BME280;22011;59.912;30.300;2023-02-22T05:37:44;101718.28;;;-8.70;61.62
35918;BME280;22011;59.912;30.300;2023-02-22T05:40:12;101716.63;;;-8.74;61.43
35918;BME280;22011;59.912;30.300;2023-02-22T05:42:40;101720.13;;;-8.78;61.58
35918;BME280;22011;59.912;30.300;2023-02-22T05:45:10;101721.81;;;-8.77;61.85
35918;BME280;22011;59.912;30.300;2023-02-22T05:47:40;101716.66;;;-8.77;61.80
35918;BME280;22011;59.912;30.300;2023-02-22T05:50:08;101718.38;;;-8.76;61.47
35918;BME280;22011;59.912;30.300;2023-02-22T05:52:35;101721.81;;;-8.77;61.16
35918;BME280;22011;59.912;30.300;2023-02-22T05:55:04;101721.81;;;-8.77;61.88
35918;BME280;22011;59.912;30.300;2023-02-22T05:57:31;101723.47;;;-8.70;61.56
35918;BME280;22011;59.912;30.300;2023-02-22T06:00:00;101719.91;;;-8.63;61.91
35918;BME280;22011;59.912;30.300;2023-02-22T06:02:40;101722.41;;;-8.55;62.00
35918;BME280;22011;59.912;30.300;2023-02-22T06:05:07;101726.66;;;-8.53;61.53
35918;BME280;22011;59.912;30.300;2023-02-22T06:07:35;101736.13;;;-8.50;61.11
35918;BME280;22011;59.912;30.300;2023-02-22T06:10:03;101737.84;;;-8.51;61.02
35918;BME280;22011;59.912;30.300;2023-02-22T06:12:31;101741.25;;;-8.49;61.10
35918;BME280;22011;59.912;30.300;2023-02-22T06:14:59;101739.44;;;-8.42;61.27
35918;BME280;22011;59.912;30.300;2023-02-22T06:17:26;101748.94;;;-8.43;60.96
35918;BME280;22011;59.912;30.300;2023-02-22T06:19:57;101743.00;;;-8.49;60.45
35918;BME280;22011;59.912;30.300;2023-02-22T06:22:24;101752.50;;;-8.53;59.85
35918;BME280;22011;59.912;30.300;2023-02-22T06:24:52;101756.91;;;-8.61;59.56
35918;BME280;22011;59.912;30.300;2023-02-22T06:27:19;101758.78;;;-8.72;59.78
35918;BME280;22011;59.912;30.300;2023-02-22T06:29:47;101756.19;;;-8.72;60.24
35918;BME280;22011;59.912;30.300;2023-02-22T06:32:15;101751.06;;;-8.75;60.22
35918;BME280;22011;59.912;30.300;2023-02-22T06:34:42;101760.50;;;-8.71;60.18
35918;BME280;22011;59.912;30.300;2023-02-22T06:37:11;101767.28;;;-8.64;60.34
35918;BME280;22011;59.912;30.300;2023-02-22T06:39:39;101764.63;;;-8.58;60.55
35918;BME280;22011;59.912;30.300;2023-02-22T06:42:06;101765.44;;;-8.53;60.81
35918;BME280;22011;59.912;30.300;2023-02-22T06:44:34;101770.56;;;-8.50;60.71
35918;BME280;22011;59.912;30.300;2023-02-22T06:47:01;101770.63;;;-8.54;60.09
35918;BME280;22011;59.912;30.300;2023-02-22T06:49:29;101768.13;;;-8.62;59.99
35918;BME280;22011;59.912;30.300;2023-02-22T06:51:56;101773.41;;;-8.70;59.86
35918;BME280;22011;59.912;30.300;2023-02-22T06:54:25;101782.06;;;-8.75;60.11
35918;BME280;22011;59.912;30.300;2023-02-22T06:56:53;101783.81;;;-8.77;60.45
35918;BME280;22011;59.912;30.300;2023-02-22T06:59:21;101791.59;;;-8.79;60.21
35918;BME280;22011;59.912;30.300;2023-02-22T07:01:49;101788.16;;;-8.81;60.47
35918;BME280;22011;59.912;30.300;2023-02-22T07:04:16;101789.00;;;-8.80;60.42
35918;BME280;22011;59.912;30.300;2023-02-22T07:06:44;101785.56;;;-8.79;59.91
35918;BME280;22011;59.912;30.300;2023-02-22T07:09:12;101785.53;;;-8.76;60.92
35918;BME280;22011;59.912;30.300;2023-02-22T07:11:42;101794.94;;;-8.72;60.87
35918;BME280;22011;59.912;30.300;2023-02-22T07:14:10;101795.78;;;-8.70;60.24
35918;BME280;22011;59.912;30.300;2023-02-22T07:16:38;101800.03;;;-8.65;59.89
35918;BME280;22011;59.912;30.300;2023-02-22T07:19:05;101799.94;;;-8.57;60.18
35918;BME280;22011;59.912;30.300;2023-02-22T07:21:33;101801.66;;;-8.57;59.94
35918;BME280;22011;59.912;30.300;2023-02-22T07:24:00;101807.66;;;-8.54;59.68
35918;BME280;22011;59.912;30.300;2023-02-22T07:26:28;101805.91;;;-8.52;59.86
35918;BME280;22011;59.912;30.300;2023-02-22T07:28:57;101810.19;;;-8.51;60.09
35918;BME280;22011;59.912;30.300;2023-02-22T07:31:25;101811.03;;;-8.49;59.91
35918;BME280;22011;59.912;30.300;2023-02-22T07:33:52;101813.59;;;-8.47;59.67
35918;BME280;22011;59.912;30.300;2023-02-22T07:36:19;101818.69;;;-8.41;59.43
35918;BME280;22011;59.912;30.300;2023-02-22T07:38:47;101824.81;;;-8.50;59.44
35918;BME280;22011;59.912;30.300;2023-02-22T07:41:15;101827.38;;;-8.48;59.89
35918;BME280;22011;59.912;30.300;2023-02-22T07:43:42;101829.94;;;-8.45;60.01
35918;BME280;22011;59.912;30.300;2023-02-22T07:46:11;101820.50;;;-8.48;59.89
35918;BME280;22011;59.912;30.300;2023-02-22T07:48:38;101819.66;;;-8.50;60.19
35918;BME280;22011;59.912;30.300;2023-02-22T07:51:07;101835.13;;;-8.47;60.23
35918;BME280;22011;59.912;30.300;2023-02-22T07:53:38;101829.84;;;-8.38;60.80
35918;BME280;22011;59.912;30.300;2023-02-22T07:56:06;101831.41;;;-8.31;60.50
35918;BME280;22011;59.912;30.300;2023-02-22T07:58:34;101840.03;;;-8.30;60.15
35918;BME280;22011;59.912;30.300;2023-02-22T08:01:02;101839.97;;;-8.27;60.54
35918;BME280;22011;59.912;30.300;2023-02-22T08:03:32;101847.66;;;-8.21;60.83
35918;BME280;22011;59.912;30.300;2023-02-22T08:06:02;101845.09;;;-8.23;60.47
35918;BME280;22011;59.912;30.300;2023-02-22T08:08:30;101851.97;;;-8.21;60.38
35918;BME280;22011;59.912;30.300;2023-02-22T08:10:57;101854.50;;;-8.17;60.43
35918;BME280;22011;59.912;30.300;2023-02-22T08:13:25;101854.50;;;-8.17;60.17
35918;BME280;22011;59.912;30.300;2023-02-22T08:15:52;101857.06;;;-8.15;60.40
35918;BME280;22011;59.912;30.300;2023-02-22T08:18:21;101859.72;;;-8.20;59.94
35918;BME280;22011;59.912;30.300;2023-02-22T08:20:51;101859.66;;;-8.17;60.01
35918;BME280;22011;59.912;30.300;2023-02-22T08:23:21;101863.03;;;-8.10;60.29
35918;BME280;22011;59.912;30.300;2023-02-22T08:25:50;101867.31;;;-8.09;60.03
35918;BME280;22011;59.912;30.300;2023-02-22T08:28:19;101874.16;;;-8.04;59.93
35918;BME280;22011;59.912;30.300;2023-02-22T08:30:48;101872.03;;;-7.76;60.64
35918;BME280;22011;59.912;30.300;2023-02-22T08:33:16;101867.75;;;-7.77;59.67
35918;BME280;22011;59.912;30.300;2023-02-22T08:35:45;101870.25;;;-7.72;59.19
35918;BME280;22011;59.912;30.300;2023-02-22T08:38:19;101870.09;;;-7.62;58.52
35918;BME280;22011;59.912;30.300;2023-02-22T08:40:47;101877.00;;;-7.61;58.62
35918;BME280;22011;59.912;30.300;2023-02-22T08:43:15;101878.59;;;-7.52;58.35
35918;BME280;22011;59.912;30.300;2023-02-22T08:45:43;101871.53;;;-7.42;57.94
35918;BME280;22011;59.912;30.300;2023-02-22T08:48:11;101876.63;;;-7.38;57.81
35918;BME280;22011;59.912;30.300;2023-02-22T08:50:40;101871.47;;;-7.39;58.06
35918;BME280;22011;59.912;30.300;2023-02-22T08:53:11;101878.38;;;-7.38;58.53
35918;BME280;22011;59.912;30.300;2023-02-22T08:55:41;101877.41;;;-7.33;58.61
35918;BME280;22011;59.912;30.300;2023-02-22T08:58:09;101883.44;;;-7.32;58.37
35918;BME280;22011;59.912;30.300;2023-02-22T09:00:38;101881.66;;;-7.29;58.61
35918;BME280;22011;59.912;30.300;2023-02-22T09:03:08;101876.63;;;-7.36;58.85
35918;BME280;22011;59.912;30.300;2023-02-22T09:05:36;101881.88;;;-7.41;58.76
35918;BME280;22011;59.912;30.300;2023-02-22T09:08:04;101886.91;;;-7.32;58.58
35918;BME280;22011;59.912;30.300;2023-02-22T09:10:33;101879.97;;;-7.31;58.72
35918;BME280;22011;59.912;30.300;2023-02-22T09:13:03;101888.59;;;-7.29;59.00
35918;BME280;22011;59.912;30.300;2023-02-22T09:15:32;101892.13;;;-7.35;58.72
35918;BME280;22011;59.912;30.300;2023-02-22T09:18:01;101897.91;;;-7.20;58.40
35918;BME280;22011;59.912;30.300;2023-02-22T09:20:29;101894.41;;;-7.18;58.22
35918;BME280;22011;59.912;30.300;2023-02-22T09:22:57;101903.06;;;-7.19;58.19
35918;BME280;22011;59.912;30.300;2023-02-22T09:25:25;101905.63;;;-7.17;58.79
35918;BME280;22011;59.912;30.300;2023-02-22T09:27:54;101907.22;;;-7.09;58.53
35918;BME280;22011;59.912;30.300;2023-02-22T09:30:29;101913.94;;;-6.99;58.94
35918;BME280;22011;59.912;30.300;2023-02-22T09:33:00;101904.53;;;-7.03;58.69
35918;BME280;22011;59.912;30.300;2023-02-22T09:35:28;101917.38;;;-6.97;58.50
35918;BME280;22011;59.912;30.300;2023-02-22T09:37:57;101926.81;;;-6.94;58.82
35918;BME280;22011;59.912;30.300;2023-02-22T09:40:27;101920.84;;;-6.98;58.82
35918;BME280;22011;59.912;30.300;2023-02-22T09:43:13;101920.72;;;-6.92;59.36
35918;BME280;22011;59.912;30.300;2023-02-22T09:45:57;101921.44;;;-6.82;59.34
35918;BME280;22011;59.912;30.300;2023-02-22T09:48:33;101913.56;;;-6.77;59.61
35918;BME280;22011;59.912;30.300;2023-02-22T09:51:02;101922.19;;;-6.75;59.29
35918;BME280;22011;59.912;30.300;2023-02-22T09:53:42;101927.31;;;-6.72;59.18
35918;BME280;22011;59.912;30.300;2023-02-22T09:56:16;101926.47;;;-6.74;58.69
35918;BME280;22011;59.912;30.300;2023-02-22T09:58:46;101927.38;;;-6.75;58.87
35918;BME280;22011;59.912;30.300;2023-02-22T10:01:22;101925.44;;;-6.64;59.63
35918;BME280;22011;59.912;30.300;2023-02-22T10:03:57;101927.13;;;-6.62;59.01
35918;BME280;22011;59.912;30.300;2023-02-22T10:06:28;101930.56;;;-6.61;59.25
35918;BME280;22011;59.912;30.300;2023-02-22T10:09:00;101927.81;;;-6.52;59.09
35918;BME280;22011;59.912;30.300;2023-02-22T10:11:51;101924.88;;;-6.34;59.44
35918;BME280;22011;59.912;30.300;2023-02-22T10:17:23;101929.94;;;-6.28;59.07
35918;BME280;22011;59.912;30.300;2023-02-22T10:20:05;101931.50;;;-6.20;59.24
35918;BME280;22011;59.912;30.300;2023-02-22T10:22:45;101928.81;;;-6.16;58.72
35918;BME280;22011;59.912;30.300;2023-02-22T10:25:21;101930.63;;;-6.21;58.37
35918;BME280;22011;59.912;30.300;2023-02-22T10:27:55;101941.78;;;-6.16;59.13
35918;BME280;22011;59.912;30.300;2023-02-22T10:30:27;101939.19;;;-6.16;59.11
35918;BME280;22011;59.912;30.300;2023-02-22T10:33:03;101940.72;;;-6.06;58.66
35918;BME280;22011;59.912;30.300;2023-02-22T10:35:37;101940.81;;;-6.10;58.25
35918;BME280;22011;59.912;30.300;2023-02-22T10:38:12;101944.38;;;-6.16;58.20
35918;BME280;22011;59.912;30.300;2023-02-22T10:40:43;101948.75;;;-6.18;58.67
35918;BME280;22011;59.912;30.300;2023-02-22T10:43:14;101944.38;;;-6.16;58.68
35918;BME280;22011;59.912;30.300;2023-02-22T10:45:41;101949.47;;;-6.11;58.39
35918;BME280;22011;59.912;30.300;2023-02-22T10:48:12;101952.00;;;-6.08;58.25
35918;BME280;22011;59.912;30.300;2023-02-22T10:50:45;101955.44;;;-6.06;58.23
35918;BME280;22011;59.912;30.300;2023-02-22T10:53:13;101960.56;;;-6.03;57.72
35918;BME280;22011;59.912;30.300;2023-02-22T10:58:52;101953.06;;;-6.18;57.39
35918;BME280;22011;59.912;30.300;2023-02-22T11:01:26;101960.25;;;-6.31;57.93
35918;BME280;22011;59.912;30.300;2023-02-22T11:04:01;101952.69;;;-6.42;58.80
35918;BME280;22011;59.912;30.300;2023-02-22T11:06:31;101963.97;;;-6.44;59.00
35918;BME280;22011;59.912;30.300;2023-02-22T11:09:07;101959.44;;;-6.33;59.35
35918;BME280;22011;59.912;30.300;2023-02-22T11:11:38;101964.53;;;-6.29;59.21
35918;BME280;22011;59.912;30.300;2023-02-22T11:14:07;101956.56;;;-6.19;59.29
35918;BME280;22011;59.912;30.300;2023-02-22T11:16:39;101952.84;;;-6.08;59.36
35918;BME280;22011;59.912;30.300;2023-02-22T11:19:17;101966.44;;;-5.95;59.70
35918;BME280;22011;59.912;30.300;2023-02-22T11:21:45;101955.44;;;-6.08;59.47
35918;BME280;22011;59.912;30.300;2023-02-22T11:24:17;101959.66;;;-6.02;58.80
35918;BME280;22011;59.912;30.300;2023-02-22T11:26:48;101959.59;;;-5.99;59.16
35918;BME280;22011;59.912;30.300;2023-02-22T11:29:19;101959.72;;;-6.05;59.08
35918;BME280;22011;59.912;30.300;2023-02-22T11:31:48;101962.31;;;-6.05;58.94
35918;BME280;22011;59.912;30.300;2023-02-22T11:34:30;101967.19;;;-5.90;58.94
35918;BME280;22011;59.912;30.300;2023-02-22T11:37:16;101962.72;;;-5.83;59.36
35918;BME280;22011;59.912;30.300;2023-02-22T11:39:47;101975.13;;;-5.96;59.09
35918;BME280;22011;59.912;30.300;2023-02-22T11:42:21;101963.72;;;-5.89;59.26
35918;BME280;22011;59.912;30.300;2023-02-22T11:45:06;101964.66;;;-5.93;58.72
35918;BME280;22011;59.912;30.300;2023-02-22T11:47:34;101963.78;;;-5.92;58.42
35918;BME280;22011;59.912;30.300;2023-02-22T11:50:09;101968.81;;;-5.86;58.97
35918;BME280;22011;59.912;30.300;2023-02-22T11:52:45;101973.25;;;-5.89;58.85
35918;BME280;22011;59.912;30.300;2023-02-22T11:55:18;101979.41;;;-5.95;58.70
35918;BME280;22011;59.912;30.300;2023-02-22T11:57:57;101975.94;;;-5.94;58.87
35918;BME280;22011;59.912;30.300;2023-02-22T12:00:36;101981.97;;;-5.94;59.00
35918;BME280;22011;59.912;30.300;2023-02-22T12:03:33;101989.53;;;-5.83;59.17
35918;BME280;22011;59.912;30.300;2023-02-22T12:06:16;101986.03;;;-5.82;59.21
35918;BME280;22011;59.912;30.300;2023-02-22T12:09:00;101992.88;;;-5.78;59.34
35918;BME280;22011;59.912;30.300;2023-02-22T12:11:36;101987.97;;;-5.90;59.40
35918;BME280;22011;59.912;30.300;2023-02-22T12:14:14;101988.03;;;-5.93;60.29
35918;BME280;22011;59.912;30.300;2023-02-22T12:17:02;101995.47;;;-5.78;60.37
35918;BME280;22011;59.912;30.300;2023-02-22T12:19:36;101987.88;;;-5.87;59.50
35918;BME280;22011;59.912;30.300;2023-02-22T12:22:08;102002.56;;;-5.86;59.30
35918;BME280;22011;59.912;30.300;2023-02-22T12:24:41;102001.03;;;-5.95;59.11
35918;BME280;22011;59.912;30.300;2023-02-22T12:27:14;101995.81;;;-5.93;59.85
35918;BME280;22011;59.912;30.300;2023-02-22T12:29:48;102000.88;;;-5.88;59.32
35918;BME280;22011;59.912;30.300;2023-02-22T12:32:26;102009.44;;;-5.83;60.00
35918;BME280;22011;59.912;30.300;2023-02-22T12:34:58;102006.25;;;-5.96;59.56
35918;BME280;22011;59.912;30.300;2023-02-22T12:37:36;102005.34;;;-5.94;59.64
35918;BME280;22011;59.912;30.300;2023-02-22T12:40:11;102003.59;;;-5.93;59.46
35918;BME280;22011;59.912;30.300;2023-02-22T12:42:49;102010.47;;;-5.90;59.94
35918;BME280;22011;59.912;30.300;2023-02-22T12:45:25;102007.91;;;-5.92;59.82
35918;BME280;22011;59.912;30.300;2023-02-22T12:48:03;102015.63;;;-5.89;59.96
35918;BME280;22011;59.912;30.300;2023-02-22T12:50:34;102014.03;;;-5.96;60.33
35918;BME280;22011;59.912;30.300;2023-02-22T12:53:12;102007.84;;;-5.89;60.36
35918;BME280;22011;59.912;30.300;2023-02-22T12:55:43;102020.09;;;-5.96;59.84
35918;BME280;22011;59.912;30.300;2023-02-22T12:58:20;102019.22;;;-5.96;59.99
35918;BME280;22011;59.912;30.300;2023-02-22T13:00:57;102014.03;;;-5.96;60.10
35918;BME280;22011;59.912;30.300;2023-02-22T13:03:32;102012.31;;;-5.97;59.92
35918;BME280;22011;59.912;30.300;2023-02-22T13:06:35;102021.53;;;-5.82;60.28
35918;BME280;22011;59.912;30.300;2023-02-22T13:09:19;102028.19;;;-5.69;60.55
35918;BME280;22011;59.912;30.300;2023-02-22T13:11:58;102020.44;;;-5.71;60.12
35918;BME280;22011;59.912;30.300;2023-02-22T13:14:37;102016.03;;;-5.67;60.01
35918;BME280;22011;59.912;30.300;2023-02-22T13:17:12;102022.06;;;-5.67;59.83